Time;durP1;ratioP1;P1;durP2;ratioP2;P2;SDS_P1;SDS_P2;PMS_P1;PMS_P2;Temp;Humidity;BMP_temperature;BMP_pressure;BME280_temperature;BME280_humidity;BME280_pressure;Samples;Min_cycle;Max_cycle;Signal;HPM_P1;HPM_P2
2022/08/09 00:01:26;;;;;;;5.83;4.40;;;21.40;54.10;;;;;;5078316;28;20463;-81
2022/08/09 00:03:53;;;;;;;5.23;4.50;;;21.40;54.20;;;;;;5076149;28;20479;-81
2022/08/09 00:06:20;;;;;;;6.87;5.40;;;21.30;54.40;;;;;;5071477;28;20435;-81
2022/08/09 00:08:49;;;;;;;6.43;4.83;;;21.30;54.60;;;;;;5076729;28;20498;-82
2022/08/09 00:11:16;;;;;;;7.40;4.03;;;21.30;54.70;;;;;;5076157;28;20437;-81
2022/08/09 00:13:42;;;;;;;6.17;3.80;;;21.30;55.00;;;;;;5081527;28;20436;-81
2022/08/09 00:16:09;;;;;;;4.90;3.73;;;21.30;54.90;;;;;;5078805;28;20432;-81
2022/08/09 00:18:38;;;;;;;5.43;4.83;;;21.20;55.10;;;;;;5078373;28;20464;-81
2022/08/09 00:21:14;;;;;;;9.30;4.70;;;21.20;55.20;;;;;;5080635;28;20435;-82
2022/08/09 00:23:40;;;;;;;6.63;5.73;;;21.20;55.10;;;;;;5086527;28;20471;-81
2022/08/09 00:26:09;;;;;;;6.73;4.70;;;21.20;55.30;;;;;;5080476;28;20456;-82
2022/08/09 00:28:36;;;;;;;6.63;5.30;;;21.10;55.60;;;;;;5075720;28;20441;-82
2022/08/09 00:31:03;;;;;;;5.30;4.80;;;21.00;55.90;;;;;;5082420;28;20439;-80
2022/08/09 00:33:30;;;;;;;5.80;4.47;;;21.10;56.70;;;;;;5084113;28;20455;-82
2022/08/09 00:35:59;;;;;;;5.73;3.70;;;21.00;57.20;;;;;;5084634;28;20425;-80
2022/08/09 00:38:26;;;;;;;6.20;4.40;;;21.00;57.80;;;;;;5090290;28;20424;-81
2022/08/09 00:40:53;;;;;;;6.30;3.43;;;20.90;58.20;;;;;;5075143;28;20456;-81
2022/08/09 00:43:20;;;;;;;4.43;3.63;;;20.90;58.70;;;;;;5082991;28;20444;-81
2022/08/09 00:45:47;;;;;;;5.03;3.30;;;20.80;59.00;;;;;;5071917;28;20432;-81
2022/08/09 00:48:14;;;;;;;3.50;3.10;;;20.50;59.50;;;;;;5080511;28;20436;-81
2022/08/09 00:50:41;;;;;;;4.33;3.30;;;20.50;60.10;;;;;;5080343;28;20461;-81
2022/08/09 00:53:11;;;;;;;4.40;3.63;;;20.40;60.30;;;;;;5076142;28;20444;-81
2022/08/09 00:55:38;;;;;;;6.10;3.97;;;20.40;60.80;;;;;;5075599;28;20451;-81
2022/08/09 00:58:05;;;;;;;4.87;3.50;;;20.30;60.90;;;;;;5082366;28;20420;-81
2022/08/09 01:00:33;;;;;;;7.50;4.90;;;20.30;61.00;;;;;;5075375;28;20476;-81
2022/08/09 01:03:10;;;;;;;4.93;3.70;;;20.30;61.00;;;;;;5075466;28;20448;-81
2022/08/09 01:05:42;;;;;;;6.90;3.70;;;20.30;61.00;;;;;;5077922;28;20479;-81
2022/08/09 01:08:15;;;;;;;10.30;4.00;;;20.30;60.90;;;;;;5075456;28;20428;-81
2022/08/09 01:10:51;;;;;;;5.00;3.57;;;20.20;61.00;;;;;;5078166;28;20471;-81
2022/08/09 01:13:25;;;;;;;4.33;3.93;;;20.20;61.40;;;;;;5075706;28;20440;-81
2022/08/09 01:15:54;;;;;;;5.17;3.50;;;20.20;61.60;;;;;;5077014;28;20440;-81
2022/08/09 01:18:26;;;;;;;5.70;3.43;;;20.20;61.60;;;;;;5073671;28;20475;-81
2022/08/09 01:21:00;;;;;;;4.40;2.90;;;20.10;61.00;;;;;;5073700;28;20452;-81
2022/08/09 01:23:45;;;;;;;8.00;3.57;;;20.10;60.60;;;;;;5078215;28;20439;-81
2022/08/09 01:26:24;;;;;;;3.43;3.10;;;20.10;60.30;;;;;;5076616;28;20439;-81
2022/08/09 01:28:55;;;;;;;8.20;3.53;;;20.10;60.20;;;;;;5081252;28;20443;-81
2022/08/09 01:31:25;;;;;;;3.70;3.40;;;20.10;60.50;;;;;;5079429;28;20456;-81
2022/08/09 01:33:54;;;;;;;3.57;2.63;;;20.10;60.70;;;;;;5069577;28;20514;-81
2022/08/09 01:36:25;;;;;;;4.33;3.20;;;20.00;60.90;;;;;;5076222;28;20439;-81
2022/08/09 01:38:53;;;;;;;3.83;3.40;;;20.00;61.40;;;;;;5086745;28;20454;-81
2022/08/09 01:41:23;;;;;;;4.03;3.63;;;20.00;61.50;;;;;;5088505;28;20428;-81
2022/08/09 01:43:56;;;;;;;3.73;3.43;;;20.00;61.50;;;;;;5083288;28;20428;-80
2022/08/09 01:46:25;;;;;;;3.87;3.43;;;19.90;61.70;;;;;;5087161;28;20458;-81
2022/08/09 01:48:54;;;;;;;4.57;3.60;;;19.90;62.10;;;;;;5080658;28;20432;-81
2022/08/09 01:51:23;;;;;;;3.47;3.17;;;19.90;62.30;;;;;;5078452;28;20480;-81
2022/08/09 01:53:51;;;;;;;4.43;3.90;;;19.80;62.70;;;;;;5076450;28;20448;-80
2022/08/09 01:56:19;;;;;;;4.53;4.10;;;19.80;63.30;;;;;;5070715;28;20458;-81
2022/08/09 01:58:47;;;;;;;7.20;5.30;;;19.70;63.50;;;;;;5081772;28;20921;-81
2022/08/09 02:01:16;;;;;;;6.20;3.90;;;19.50;62.70;;;;;;5082215;28;20436;-80
2022/08/09 02:03:44;;;;;;;9.53;5.67;;;19.50;63.60;;;;;;5075587;28;20455;-80
2022/08/09 02:06:11;;;;;;;7.10;5.63;;;19.50;63.80;;;;;;5063765;28;20464;-80
2022/08/09 02:08:41;;;;;;;8.80;4.90;;;19.60;63.80;;;;;;5074636;28;20448;-80
2022/08/09 02:11:10;;;;;;;7.30;4.10;;;19.60;64.20;;;;;;5070424;28;20437;-80
2022/08/09 02:13:37;;;;;;;4.83;4.33;;;19.60;64.50;;;;;;5072562;28;20444;-80
2022/08/09 02:16:07;;;;;;;4.83;4.33;;;19.50;64.80;;;;;;5076543;28;20461;-81
2022/08/09 02:18:37;;;;;;;6.80;4.37;;;19.40;65.30;;;;;;5084673;28;20432;-80
2022/08/09 02:21:10;;;;;;;5.60;4.97;;;19.30;65.80;;;;;;5080702;28;20448;-80
2022/08/09 02:23:41;;;;;;;7.47;5.40;;;19.40;66.20;;;;;;5083410;28;20443;-81
2022/08/09 02:26:12;;;;;;;4.87;4.20;;;19.30;66.20;;;;;;5076695;28;20479;-81
2022/08/09 02:28:42;;;;;;;4.33;3.10;;;19.30;66.70;;;;;;5076559;28;20870;-81
2022/08/09 02:31:15;;;;;;;5.87;3.67;;;19.30;67.20;;;;;;5072024;28;20440;-81
2022/08/09 02:33:44;;;;;;;6.63;4.40;;;19.30;67.50;;;;;;5074550;28;20513;-81
2022/08/09 02:36:16;;;;;;;7.13;4.30;;;19.30;67.70;;;;;;5063957;28;20432;-81
2022/08/09 02:38:49;;;;;;;4.87;4.20;;;19.30;68.70;;;;;;5063019;28;20953;-81
2022/08/09 02:41:19;;;;;;;5.93;5.43;;;19.30;68.20;;;;;;5070316;28;20437;-80
2022/08/09 02:43:49;;;;;;;7.37;4.97;;;19.20;68.20;;;;;;5079465;28;20440;-81
2022/08/09 02:46:17;;;;;;;7.70;6.10;;;19.20;68.60;;;;;;5080542;28;21182;-81
2022/08/09 02:48:46;;;;;;;5.47;4.93;;;19.10;68.70;;;;;;5070005;28;20814;-80
2022/08/09 02:51:17;;;;;;;6.07;4.80;;;19.10;69.20;;;;;;5095236;28;20432;-80
2022/08/09 02:53:49;;;;;;;6.87;5.80;;;19.00;69.90;;;;;;5074520;28;20440;-80
2022/08/09 02:56:18;;;;;;;5.80;5.30;;;19.00;70.30;;;;;;5068520;28;20428;-80
2022/08/09 02:58:46;;;;;;;6.90;4.80;;;18.90;70.70;;;;;;5064804;28;20527;-80
2022/08/09 03:01:15;;;;;;;7.40;5.13;;;18.90;71.30;;;;;;5070017;28;20440;-80
2022/08/09 03:03:43;;;;;;;7.20;4.43;;;18.90;72.00;;;;;;5065909;28;20472;-80
2022/08/09 03:06:14;;;;;;;5.00;4.33;;;18.80;72.10;;;;;;5077934;28;20471;-81
2022/08/09 03:08:43;;;;;;;5.27;4.60;;;18.90;72.80;;;;;;5075635;28;20482;-81
2022/08/09 03:11:11;;;;;;;5.03;4.30;;;18.90;72.60;;;;;;5078557;28;20494;-81
2022/08/09 03:13:38;;;;;;;5.93;4.10;;;18.90;72.90;;;;;;5066878;28;20502;-81
2022/08/09 03:16:05;;;;;;;4.90;4.40;;;18.90;72.80;;;;;;5070312;28;20474;-81
2022/08/09 03:18:32;;;;;;;4.70;4.30;;;18.80;72.70;;;;;;5070616;28;20433;-81
2022/08/09 03:21:01;;;;;;;5.80;4.40;;;18.90;73.10;;;;;;5078720;28;20468;-81
2022/08/09 03:23:30;;;;;;;4.43;3.97;;;18.80;73.10;;;;;;5076503;28;20512;-81
2022/08/09 03:25:58;;;;;;;5.77;4.27;;;18.80;73.90;;;;;;5070976;28;20998;-81
2022/08/09 03:28:26;;;;;;;5.00;4.03;;;18.70;74.20;;;;;;5065133;28;20447;-81
2022/08/09 03:30:54;;;;;;;8.30;4.70;;;18.70;74.50;;;;;;5066968;28;20460;-81
2022/08/09 03:33:22;;;;;;;4.40;4.00;;;18.60;74.90;;;;;;5071778;28;20436;-81
2022/08/09 03:35:51;;;;;;;6.80;4.97;;;18.60;75.60;;;;;;5065950;28;20441;-81
2022/08/09 03:38:18;;;;;;;8.67;4.77;;;18.60;75.70;;;;;;5080966;28;20917;-80
2022/08/09 03:40:46;;;;;;;5.47;4.87;;;18.60;75.80;;;;;;5083944;28;20479;-81
2022/08/09 03:43:12;;;;;;;6.57;4.93;;;18.60;76.10;;;;;;5073464;28;20444;-81
2022/08/09 03:45:39;;;;;;;6.80;4.87;;;18.50;76.40;;;;;;5075625;28;20479;-80
2022/08/09 03:48:06;;;;;;;9.50;6.23;;;18.40;77.10;;;;;;5070705;28;20444;-80
2022/08/09 03:50:34;;;;;;;9.03;5.50;;;18.40;77.50;;;;;;5065694;28;20993;-80
2022/08/09 03:53:04;;;;;;;7.27;5.60;;;18.30;77.80;;;;;;5068554;28;20445;-80
2022/08/09 03:55:31;;;;;;;5.43;4.93;;;18.30;78.00;;;;;;5068416;28;20444;-80
2022/08/09 03:57:59;;;;;;;9.00;5.07;;;18.30;77.90;;;;;;5091745;28;20412;-80
2022/08/09 04:00:26;;;;;;;8.40;6.23;;;18.30;78.20;;;;;;5089507;28;20460;-81
2022/08/09 04:02:55;;;;;;;6.70;6.00;;;18.30;77.90;;;;;;5073026;28;20444;-81
2022/08/09 04:05:22;;;;;;;8.53;5.77;;;18.20;78.00;;;;;;5072245;28;20472;-81
2022/08/09 04:07:49;;;;;;;8.90;5.70;;;18.20;78.40;;;;;;5072409;28;20436;-81
2022/08/09 04:10:16;;;;;;;8.17;6.23;;;18.20;78.60;;;;;;5065861;28;20472;-81
2022/08/09 04:12:44;;;;;;;8.40;5.93;;;18.20;78.50;;;;;;5067231;28;20455;-81
2022/08/09 04:15:13;;;;;;;6.77;6.00;;;18.10;78.60;;;;;;5058413;28;20787;-81
2022/08/09 04:17:40;;;;;;;8.73;6.80;;;18.20;79.30;;;;;;5075765;28;20443;-81
2022/08/09 04:20:09;;;;;;;9.27;7.20;;;18.10;79.30;;;;;;5082576;28;20474;-81
2022/08/09 04:22:35;;;;;;;7.80;7.00;;;18.10;80.00;;;;;;5081196;28;20444;-81
2022/08/09 04:25:02;;;;;;;12.23;8.30;;;18.10;80.30;;;;;;5067340;28;20477;-80
2022/08/09 04:27:29;;;;;;;9.03;8.10;;;18.10;80.50;;;;;;5085908;28;20497;-81
2022/08/09 04:29:56;;;;;;;14.03;8.30;;;18.10;81.10;;;;;;5078600;28;20459;-81
2022/08/09 04:32:26;;;;;;;12.13;7.53;;;18.10;81.60;;;;;;5084523;28;20436;-80
2022/08/09 04:34:53;;;;;;;9.30;8.40;;;18.00;81.70;;;;;;5076684;28;20441;-81
2022/08/09 04:37:19;;;;;;;9.43;7.87;;;18.00;82.30;;;;;;5072465;28;20467;-81
2022/08/09 04:39:46;;;;;;;8.43;7.30;;;18.00;82.70;;;;;;5074027;28;20482;-81
2022/08/09 04:42:13;;;;;;;11.13;8.67;;;18.00;83.30;;;;;;5071707;28;20429;-81
2022/08/09 04:44:40;;;;;;;9.17;8.23;;;18.00;83.30;;;;;;5078752;28;20436;-80
2022/08/09 04:47:06;;;;;;;8.40;7.60;;;18.00;84.20;;;;;;5083084;28;20440;-80
2022/08/09 04:49:36;;;;;;;11.90;9.17;;;18.00;84.40;;;;;;5067213;28;20489;-81
2022/08/09 04:52:04;;;;;;;13.73;6.60;;;18.00;84.80;;;;;;5063223;28;20436;-81
2022/08/09 04:54:31;;;;;;;11.50;8.83;;;18.00;85.00;;;;;;5073205;28;20487;-82
2022/08/09 04:56:58;;;;;;;9.13;6.40;;;18.10;85.30;;;;;;5063710;28;20437;-81
2022/08/09 04:59:25;;;;;;;9.43;6.43;;;18.00;85.30;;;;;;5065795;28;20472;-81
2022/08/09 05:01:51;;;;;;;8.50;6.93;;;18.10;85.90;;;;;;5067937;28;20448;-81
2022/08/09 05:04:18;;;;;;;15.03;8.07;;;18.30;86.00;;;;;;5074484;28;20488;-81
2022/08/09 05:06:46;;;;;;;8.23;7.30;;;18.60;85.30;;;;;;5089762;28;20490;-79
2022/08/09 05:09:13;;;;;;;11.63;9.60;;;19.10;83.50;;;;;;5088369;28;20452;-81
2022/08/09 05:11:39;;;;;;;8.17;7.33;;;19.60;81.20;;;;;;5073043;28;20494;-81
2022/08/09 05:14:06;;;;;;;9.40;8.10;;;20.10;78.80;;;;;;5067728;28;20437;-81
2022/08/09 05:16:33;;;;;;;13.17;7.40;;;20.60;76.00;;;;;;5075673;28;20435;-81
2022/08/09 05:19:00;;;;;;;17.17;8.03;;;21.00;74.50;;;;;;5069161;28;20452;-81
2022/08/09 05:21:27;;;;;;;10.63;9.00;;;21.50;71.20;;;;;;5069105;28;20494;-81
2022/08/09 05:23:55;;;;;;;14.30;9.33;;;21.80;69.00;;;;;;5073655;28;20436;-81
2022/08/09 05:26:22;;;;;;;15.53;9.03;;;22.20;67.70;;;;;;5073622;28;20472;-81
2022/08/09 05:28:49;;;;;;;12.70;9.40;;;22.50;66.00;;;;;;5075250;28;20440;-81
2022/08/09 05:31:16;;;;;;;10.37;9.17;;;22.60;65.50;;;;;;5079446;28;20427;-81
2022/08/09 05:33:43;;;;;;;11.53;9.63;;;22.60;64.70;;;;;;5077235;28;20493;-81
2022/08/09 05:36:09;;;;;;;11.13;9.23;;;22.80;64.10;;;;;;5068197;28;20918;-81
2022/08/09 05:38:36;;;;;;;16.07;9.67;;;23.00;63.30;;;;;;5061055;28;20445;-81
2022/08/09 05:41:04;;;;;;;13.50;9.27;;;23.40;61.90;;;;;;5073759;28;20485;-81
2022/08/09 05:43:34;;;;;;;11.47;8.27;;;23.70;60.40;;;;;;5067558;28;20440;-81
2022/08/09 05:46:01;;;;;;;9.53;8.50;;;23.90;59.40;;;;;;5067645;28;21009;-82
2022/08/09 05:48:28;;;;;;;16.40;7.90;;;24.10;58.80;;;;;;5071394;28;20443;-81
2022/08/09 05:50:55;;;;;;;9.63;8.07;;;24.50;57.90;;;;;;5070644;28;20456;-81
2022/08/09 05:53:22;;;;;;;9.63;6.57;;;24.80;57.20;;;;;;5067857;28;20850;-81
2022/08/09 05:55:49;;;;;;;8.50;4.90;;;25.10;56.30;;;;;;5067045;28;20436;-81
2022/08/09 05:58:17;;;;;;;6.60;6.00;;;25.40;55.00;;;;;;5075084;28;20583;-81
2022/08/09 06:00:43;;;;;;;9.83;5.50;;;25.50;53.70;;;;;;5081023;28;20486;-81
2022/08/09 06:03:10;;;;;;;5.70;5.20;;;25.20;53.50;;;;;;5068812;28;20807;-81
2022/08/09 06:05:36;;;;;;;7.17;6.57;;;25.40;53.70;;;;;;5065742;28;20473;-81
2022/08/09 06:08:04;;;;;;;7.93;7.07;;;25.30;53.80;;;;;;5066126;28;20437;-81
2022/08/09 06:10:40;;;;;;;9.23;6.73;;;25.80;54.00;;;;;;5066368;28;20559;-81
2022/08/09 06:13:08;;;;;;;8.20;6.40;;;26.30;53.50;;;;;;5064481;28;20511;-81
2022/08/09 06:15:36;;;;;;;7.83;7.03;;;26.90;52.80;;;;;;5071286;28;20440;-81
2022/08/09 06:18:03;;;;;;;11.63;6.53;;;26.90;51.80;;;;;;5075950;28;20449;-81
2022/08/09 06:20:30;;;;;;;6.33;5.60;;;27.30;51.90;;;;;;5073000;28;20992;-81
2022/08/09 06:22:57;;;;;;;5.80;5.30;;;28.00;50.20;;;;;;5064812;28;20441;-81
2022/08/09 06:25:24;;;;;;;8.13;5.70;;;28.20;48.90;;;;;;5067921;28;20519;-81
2022/08/09 06:27:51;;;;;;;12.57;4.77;;;28.60;48.00;;;;;;5066029;28;20440;-81
2022/08/09 06:30:18;;;;;;;5.83;4.87;;;28.90;47.00;;;;;;5059102;28;20475;-81
2022/08/09 06:32:46;;;;;;;7.30;6.20;;;29.60;45.80;;;;;;5064733;28;20451;-82
2022/08/09 06:35:12;;;;;;;5.40;4.90;;;29.90;44.70;;;;;;5065113;28;20450;-81
2022/08/09 06:37:39;;;;;;;5.10;4.70;;;30.40;43.90;;;;;;5084354;28;20432;-82
2022/08/09 06:40:07;;;;;;;5.90;4.93;;;30.60;43.40;;;;;;5092168;28;20464;-82
2022/08/09 06:42:34;;;;;;;6.40;4.87;;;31.00;42.90;;;;;;5095081;28;20452;-81
2022/08/09 06:45:00;;;;;;;5.70;5.20;;;31.30;42.00;;;;;;5081541;28;20439;-81
2022/08/09 06:47:27;;;;;;;7.07;5.73;;;31.40;41.80;;;;;;5080153;28;21060;-82
2022/08/09 06:49:57;;;;;;;6.13;5.10;;;31.60;42.00;;;;;;5082303;28;20566;-82
2022/08/09 06:52:24;;;;;;;6.03;5.20;;;32.00;41.60;;;;;;5074011;28;20815;-82
2022/08/09 06:54:50;;;;;;;6.73;4.80;;;32.30;40.40;;;;;;5066213;28;20429;-81
2022/08/09 06:57:17;;;;;;;5.67;4.53;;;32.60;40.00;;;;;;5061327;28;20442;-81
2022/08/09 06:59:45;;;;;;;6.67;4.70;;;32.70;39.70;;;;;;5068288;28;20547;-82
2022/08/09 07:02:11;;;;;;;7.00;4.40;;;32.60;39.70;;;;;;5062740;28;20438;-80
2022/08/09 07:04:38;;;;;;;4.80;4.10;;;32.70;39.70;;;;;;5070060;28;20939;-81
2022/08/09 07:07:06;;;;;;;4.50;3.93;;;32.80;39.70;;;;;;5085676;28;20476;-81
2022/08/09 07:09:33;;;;;;;4.07;3.60;;;32.60;39.30;;;;;;5085302;28;20459;-81
2022/08/09 07:12:00;;;;;;;4.03;3.47;;;32.60;39.40;;;;;;5078096;28;20443;-81
2022/08/09 07:14:26;;;;;;;5.10;3.67;;;33.20;39.00;;;;;;5082069;28;20440;-81
2022/08/09 07:16:53;;;;;;;5.00;3.70;;;33.70;38.10;;;;;;5072443;28;20508;-87
2022/08/09 07:19:20;;;;;;;4.63;3.03;;;33.90;37.40;;;;;;5064566;28;20465;-87
2022/08/09 07:21:48;;;;;;;6.17;3.10;;;34.30;37.10;;;;;;5071110;28;20826;-86
2022/08/09 07:24:16;;;;;;;3.30;3.00;;;34.60;36.50;;;;;;5068678;28;20447;-87
2022/08/09 07:26:42;;;;;;;2.70;2.50;;;35.10;35.50;;;;;;5090430;28;20484;-85
2022/08/09 07:29:09;;;;;;;3.40;3.10;;;34.60;35.70;;;;;;5072141;28;20466;-86
2022/08/09 07:31:36;;;;;;;4.47;2.87;;;34.80;35.90;;;;;;5078321;28;20443;-87
2022/08/09 07:34:03;;;;;;;4.00;3.17;;;34.80;35.70;;;;;;5081544;28;20442;-86
2022/08/09 07:36:31;;;;;;;3.43;2.47;;;35.50;35.10;;;;;;5066160;28;20569;-87
2022/08/09 07:38:58;;;;;;;3.80;3.40;;;35.90;34.40;;;;;;5074377;28;20831;-87
2022/08/09 07:41:26;;;;;;;3.00;2.63;;;35.00;35.10;;;;;;5066553;28;20454;-87
2022/08/09 07:43:53;;;;;;;2.93;2.50;;;35.30;35.20;;;;;;5063848;28;20443;-87
2022/08/09 07:46:19;;;;;;;3.30;2.83;;;35.70;34.70;;;;;;5062084;28;20470;-88
2022/08/09 07:48:47;;;;;;;3.43;3.13;;;35.00;35.30;;;;;;5060521;28;20447;-88
2022/08/09 07:51:14;;;;;;;4.83;3.10;;;34.20;37.30;;;;;;5065031;28;20466;-87
2022/08/09 07:53:40;;;;;;;3.40;2.63;;;35.60;35.70;;;;;;5067921;28;20467;-89
2022/08/09 07:56:07;;;;;;;3.30;3.00;;;36.20;34.00;;;;;;5066882;28;20449;-89
2022/08/09 07:58:35;;;;;;;3.43;2.90;;;36.90;33.10;;;;;;5064271;28;20443;-88
2022/08/09 08:01:02;;;;;;;3.30;3.00;;;37.50;32.00;;;;;;5074375;28;20484;-88
2022/08/09 08:03:29;;;;;;;4.47;2.87;;;37.20;32.00;;;;;;5072420;28;21027;-88
2022/08/09 08:05:56;;;;;;;4.43;2.57;;;37.50;31.70;;;;;;5065933;28;20505;-88
2022/08/09 08:08:23;;;;;;;3.63;3.20;;;38.30;30.90;;;;;;5072532;28;20442;-89
2022/08/09 08:10:50;;;;;;;3.10;2.90;;;38.90;30.00;;;;;;5085209;28;20471;-91
2022/08/09 08:13:17;;;;;;;2.57;2.37;;;39.50;29.50;;;;;;5077181;28;20452;-89
2022/08/09 08:15:45;;;;;;;4.00;2.90;;;38.50;29.80;;;;;;5071294;28;20447;-90
2022/08/09 08:18:18;;;;;;;5.13;2.80;;;37.90;30.10;;;;;;5061341;28;20444;-92
2022/08/09 08:20:45;;;;;;;2.50;2.30;;;36.90;31.40;;;;;;5067387;28;20451;-89
2022/08/09 08:23:12;;;;;;;2.73;2.47;;;36.70;31.90;;;;;;5062949;28;20440;-89
2022/08/09 08:25:38;;;;;;;3.07;2.50;;;37.80;30.80;;;;;;5061459;28;20793;-89
2022/08/09 08:28:05;;;;;;;7.37;2.90;;;38.60;30.00;;;;;;5068532;28;20479;-89
2022/08/09 08:30:32;;;;;;;2.63;2.43;;;39.00;29.50;;;;;;5079938;28;20452;-87
2022/08/09 08:33:00;;;;;;;3.30;2.50;;;39.60;29.10;;;;;;5093515;28;20465;-88
2022/08/09 08:35:27;;;;;;;2.93;2.50;;;39.80;28.90;;;;;;5086848;28;20423;-89
2022/08/09 08:37:55;;;;;;;3.60;2.53;;;40.40;28.20;;;;;;5066548;28;20444;-89
2022/08/09 08:40:22;;;;;;;2.90;2.40;;;40.40;28.10;;;;;;5061597;28;20470;-89
2022/08/09 08:42:48;;;;;;;4.43;2.53;;;40.40;27.50;;;;;;5058874;28;20437;-90
2022/08/09 08:45:16;;;;;;;4.50;2.10;;;39.40;28.20;;;;;;5060323;28;20452;-89
2022/08/09 08:47:44;;;;;;;2.40;2.00;;;39.30;28.90;;;;;;5059523;28;20479;-90
2022/08/09 08:50:15;;;;;;;2.73;2.53;;;39.30;28.50;;;;;;5066344;28;20497;-89
2022/08/09 08:52:43;;;;;;;2.33;2.13;;;38.70;29.00;;;;;;5080845;28;20506;-80
2022/08/09 08:55:11;;;;;;;6.70;2.60;;;39.60;28.60;;;;;;5079853;28;20433;-82
2022/08/09 08:57:38;;;;;;;2.80;2.40;;;39.50;28.30;;;;;;5064287;28;20489;-82
2022/08/09 09:00:07;;;;;;;2.50;2.00;;;39.30;28.20;;;;;;5081721;28;20455;-84
2022/08/09 09:02:34;;;;;;;2.30;2.10;;;39.80;27.90;;;;;;5082167;28;20440;-84
2022/08/09 09:05:01;;;;;;;2.63;2.43;;;40.70;27.50;;;;;;5075316;28;20530;-85
2022/08/09 09:07:32;;;;;;;5.30;2.30;;;41.20;27.10;;;;;;5060974;28;20492;-86
2022/08/09 09:10:03;;;;;;;5.03;2.23;;;41.10;26.70;;;;;;5067705;28;20468;-85
2022/08/09 09:12:31;;;;;;;2.47;2.27;;;41.10;26.70;;;;;;5070963;28;20926;-86
2022/08/09 09:14:59;;;;;;;2.80;2.50;;;40.00;27.40;;;;;;5061190;28;20473;-85
2022/08/09 09:17:26;;;;;;;2.53;2.30;;;39.20;28.20;;;;;;5070609;28;20508;-85
2022/08/09 09:19:53;;;;;;;3.10;2.17;;;38.80;28.10;;;;;;5065442;28;20473;-85
2022/08/09 09:22:21;;;;;;;2.40;2.20;;;39.00;28.20;;;;;;5071716;28;20869;-85
2022/08/09 09:24:51;;;;;;;2.73;2.50;;;37.70;29.10;;;;;;5074436;28;20454;-85
2022/08/09 09:27:20;;;;;;;3.60;2.50;;;37.50;29.30;;;;;;5080345;28;20917;-85
2022/08/09 09:29:47;;;;;;;2.87;2.57;;;36.60;29.80;;;;;;5068696;28;20544;-85
2022/08/09 09:32:19;;;;;;;3.67;2.63;;;35.80;30.00;;;;;;5074294;28;20496;-85
2022/08/09 09:38:47;;;;;;;2.43;2.13;;;36.80;29.60;;;;;;5073876;28;20487;-86
2022/08/09 09:41:29;;;;;;;3.23;2.30;;;37.60;28.50;;;;;;5061826;28;20449;-89
2022/08/09 09:44:02;;;;;;;2.70;2.30;;;36.40;29.20;;;;;;5089732;28;20410;-90
2022/08/09 09:46:30;;;;;;;3.50;2.30;;;36.40;29.90;;;;;;5079244;28;20490;-90
2022/08/09 09:48:57;;;;;;;4.43;2.70;;;37.40;29.30;;;;;;5074732;28;20407;-89
2022/08/09 09:51:28;;;;;;;3.00;2.37;;;38.40;28.30;;;;;;5082903;28;20432;-87
2022/08/09 09:54:09;;;;;;;2.63;2.43;;;38.10;28.00;;;;;;5089454;28;20443;-86
2022/08/09 09:56:40;;;;;;;4.13;2.10;;;37.80;28.60;;;;;;5076741;28;20443;-85
2022/08/09 09:59:07;;;;;;;2.70;2.50;;;38.70;28.30;;;;;;5070046;28;20512;-85
2022/08/09 10:01:34;;;;;;;2.73;2.40;;;39.70;27.50;;;;;;5069128;28;20459;-85
2022/08/09 10:04:01;;;;;;;2.73;2.13;;;39.70;27.20;;;;;;5082833;28;20443;-85
2022/08/09 10:06:29;;;;;;;2.40;2.20;;;39.60;27.00;;;;;;5061164;28;20440;-87
2022/08/09 10:09:00;;;;;;;2.40;2.20;;;40.50;26.80;;;;;;5071073;28;20479;-85
2022/08/09 10:11:29;;;;;;;2.80;1.93;;;41.10;25.80;;;;;;5070427;28;20936;-85
2022/08/09 10:13:57;;;;;;;3.03;2.23;;;40.30;26.10;;;;;;5068059;28;20435;-85
2022/08/09 10:16:28;;;;;;;2.30;2.10;;;40.60;26.20;;;;;;5069017;28;20443;-84
2022/08/09 10:18:57;;;;;;;2.10;1.90;;;39.90;25.90;;;;;;5069327;28;20451;-85
2022/08/09 10:21:24;;;;;;;3.33;2.50;;;40.60;25.40;;;;;;5069234;28;20479;-85
2022/08/09 10:23:51;;;;;;;2.80;2.57;;;41.20;24.70;;;;;;5066966;28;20976;-85
2022/08/09 10:26:21;;;;;;;2.40;2.03;;;42.10;24.50;;;;;;5068494;28;20454;-85
2022/08/09 10:28:48;;;;;;;4.10;1.90;;;42.20;24.10;;;;;;5070519;28;20467;-85
2022/08/09 10:31:17;;;;;;;2.40;2.20;;;42.70;23.80;;;;;;5071874;28;20562;-85
2022/08/09 10:33:44;;;;;;;2.50;2.30;;;42.70;23.80;;;;;;5073158;28;20813;-85
2022/08/09 10:36:14;;;;;;;2.20;2.10;;;43.00;23.30;;;;;;5073403;28;20440;-85
2022/08/09 10:38:42;;;;;;;2.13;1.93;;;42.60;23.20;;;;;;5069669;28;20451;-85
2022/08/09 10:41:10;;;;;;;4.90;2.40;;;41.50;23.30;;;;;;5073377;28;20447;-85
2022/08/09 10:43:41;;;;;;;1.90;1.80;;;41.20;24.10;;;;;;5073355;28;20944;-84
2022/08/09 10:46:37;;;;;;;2.57;2.20;;;41.10;23.80;;;;;;5070142;28;20440;-86
2022/08/09 10:49:12;;;;;;;2.83;2.20;;;42.50;23.10;;;;;;5066989;28;20475;-85
2022/08/09 10:51:49;;;;;;;2.70;2.20;;;43.20;22.50;;;;;;5066890;28;20440;-86
2022/08/09 10:54:16;;;;;;;3.10;2.10;;;44.40;21.70;;;;;;5064064;28;20445;-86
2022/08/09 10:57:13;;;;;;;2.30;1.97;;;42.70;22.50;;;;;;5079905;28;20425;-87
2022/08/09 10:59:41;;;;;;;3.90;2.00;;;41.80;22.40;;;;;;5089361;28;20450;-84
2022/08/09 11:02:17;;;;;;;3.03;2.73;;;41.40;22.90;;;;;;5098107;28;20451;-85
2022/08/09 11:05:04;;;;;;;2.53;1.90;;;42.00;22.80;;;;;;5090872;28;20439;-84
2022/08/09 11:07:32;;;;;;;3.03;2.00;;;42.20;22.10;;;;;;5082243;28;20519;-84
2022/08/09 11:09:59;;;;;;;2.23;2.00;;;41.30;22.80;;;;;;5079132;28;20463;-88
2022/08/09 11:12:27;;;;;;;2.33;2.13;;;40.20;23.80;;;;;;5077383;28;20436;-85
2022/08/09 11:14:56;;;;;;;2.23;1.93;;;41.30;23.10;;;;;;5067758;28;20965;-86
2022/08/09 11:17:53;;;;;;;3.63;2.10;;;40.80;23.00;;;;;;5070123;28;20420;-85
2022/08/09 11:20:39;;;;;;;3.87;2.00;;;41.90;22.60;;;;;;5070782;28;20524;-85
2022/08/09 11:23:06;;;;;;;2.90;2.10;;;42.20;22.30;;;;;;5092684;28;20417;-85
2022/08/09 11:25:41;;;;;;;3.17;1.90;;;41.50;22.40;;;;;;5072334;28;20434;-86
2022/08/09 11:28:37;;;;;;;2.27;2.00;;;40.50;23.00;;;;;;5060486;28;20475;-87
2022/08/09 11:31:44;;;;;;;2.50;2.17;;;39.60;23.80;;;;;;5015508;28;20470;-86
2022/08/09 11:34:24;;;;;;;2.47;1.87;;;39.70;24.60;;;;;;5063220;28;20486;-85
2022/08/09 11:36:52;;;;;;;3.03;2.00;;;40.30;23.10;;;;;;5070199;28;20447;-86
2022/08/09 11:39:19;;;;;;;2.43;2.07;;;40.30;23.40;;;;;;5067586;28;20478;-86
2022/08/09 11:41:45;;;;;;;3.77;2.17;;;40.60;23.20;;;;;;5080660;28;20427;-85
2022/08/09 11:44:12;;;;;;;3.97;2.00;;;39.90;23.70;;;;;;5073149;28;20432;-86
2022/08/09 11:46:53;;;;;;;2.17;2.07;;;40.30;24.00;;;;;;5063994;28;20456;-88
2022/08/09 11:49:57;;;;;;;3.20;2.30;;;41.20;23.10;;;;;;5064110;28;20517;-85
2022/08/09 11:52:26;;;;;;;2.37;1.80;;;40.80;23.70;;;;;;5078806;28;20475;-86
2022/08/09 11:55:29;;;;;;;3.03;2.37;;;40.60;23.30;;;;;;5081812;28;20431;-86
2022/08/09 11:57:56;;;;;;;2.57;2.17;;;40.00;23.80;;;;;;5066194;28;20451;-85
2022/08/09 12:00:23;;;;;;;3.50;2.33;;;40.30;24.00;;;;;;5078754;28;20460;-85
2022/08/09 12:02:51;;;;;;;2.40;1.93;;;41.50;23.20;;;;;;5068733;28;20471;-85
2022/08/09 12:05:19;;;;;;;2.47;2.27;;;41.20;23.00;;;;;;5054830;28;20448;-86
2022/08/09 12:07:46;;;;;;;4.03;2.33;;;41.20;23.10;;;;;;5052589;28;20483;-84
2022/08/09 12:10:13;;;;;;;2.47;2.27;;;41.10;23.60;;;;;;5052678;28;20472;-90
2022/08/09 12:12:47;;;;;;;2.30;2.10;;;40.60;23.40;;;;;;5064552;28;20425;-88
2022/08/09 12:15:24;;;;;;;3.40;2.13;;;40.30;23.70;;;;;;5081264;28;20424;-86
2022/08/09 12:17:52;;;;;;;3.47;1.93;;;40.80;23.10;;;;;;5086911;28;20465;-87
2022/08/09 12:20:23;;;;;;;5.80;2.33;;;41.50;22.70;;;;;;5069928;28;20494;-86
2022/08/09 12:22:54;;;;;;;2.80;1.97;;;40.90;22.50;;;;;;5062966;28;20451;-86
2022/08/09 12:25:21;;;;;;;3.50;2.07;;;41.50;22.80;;;;;;5085538;28;20443;-86
2022/08/09 12:27:48;;;;;;;2.37;2.17;;;41.20;22.30;;;;;;5081616;28;20471;-86
2022/08/09 12:30:15;;;;;;;2.50;2.30;;;39.70;23.40;;;;;;5060566;28;20832;-86
2022/08/09 12:32:43;;;;;;;4.13;2.13;;;39.00;24.40;;;;;;5058054;28;20444;-86
2022/08/09 12:35:10;;;;;;;5.00;2.30;;;40.10;23.70;;;;;;5057232;28;20458;-86
2022/08/09 12:37:40;;;;;;;2.97;2.40;;;42.10;22.90;;;;;;5057095;28;20536;-86
2022/08/09 12:40:09;;;;;;;1.83;1.73;;;43.70;21.30;;;;;;5065575;28;20465;-86
2022/08/09 12:42:42;;;;;;;2.23;2.00;;;43.80;20.60;;;;;;5065497;28;20814;-86
2022/08/09 12:45:10;;;;;;;2.87;2.07;;;43.00;20.80;;;;;;5063411;28;20455;-86
2022/08/09 12:47:38;;;;;;;3.10;1.80;;;41.80;21.20;;;;;;5058752;28;20534;-86
2022/08/09 12:50:17;;;;;;;3.43;2.20;;;41.70;21.80;;;;;;5064634;28;20553;-86
2022/08/09 12:52:47;;;;;;;2.20;1.73;;;42.90;20.80;;;;;;5062719;28;20539;-86
2022/08/09 12:55:25;;;;;;;2.73;1.90;;;42.90;20.70;;;;;;5061875;28;20471;-87
2022/08/09 12:57:52;;;;;;;3.23;1.90;;;42.60;20.90;;;;;;5065444;28;20468;-86
2022/08/09 13:00:21;;;;;;;5.07;2.03;;;43.50;20.40;;;;;;5057121;28;20479;-86